sensor_id;sensor_type;location;lat;lon;timestamp;temperature;humidity
39983;DHT22;25670;44.782;10.356;2024-01-15T00:00:46;1.70;99.90
39983;DHT22;25670;44.782;10.356;2024-01-15T00:03:12;1.60;99.90
39983;DHT22;25670;44.782;10.356;2024-01-15T00:05:38;1.70;99.90
39983;DHT22;25670;44.782;10.356;2024-01-15T00:08:05;2.00;99.90
39983;DHT22;25670;44.782;10.356;2024-01-15T00:10:31;1.80;99.90
39983;DHT22;25670;44.782;10.356;2024-01-15T00:12:57;1.70;99.90
39983;DHT22;25670;44.782;10.356;2024-01-15T00:15:23;1.60;99.90
39983;DHT22;25670;44.782;10.356;2024-01-15T00:17:49;1.60;99.90
39983;DHT22;25670;44.782;10.356;2024-01-15T00:20:16;1.10;99.90
39983;DHT22;25670;44.782;10.356;2024-01-15T00:22:42;1.70;99.90
39983;DHT22;25670;44.782;10.356;2024-01-15T00:25:08;1.70;99.90
39983;DHT22;25670;44.782;10.356;2024-01-15T00:27:35;1.70;99.90
39983;DHT22;25670;44.782;10.356;2024-01-15T00:30:01;1.70;99.90
39983;DHT22;25670;44.782;10.356;2024-01-15T00:32:27;1.70;99.90
39983;DHT22;25670;44.782;10.356;2024-01-15T00:34:54;1.90;99.90
39983;DHT22;25670;44.782;10.356;2024-01-15T00:37:20;1.80;99.90
39983;DHT22;25670;44.782;10.356;2024-01-15T00:39:46;1.40;99.90
39983;DHT22;25670;44.782;10.356;2024-01-15T00:42:12;1.50;99.90
39983;DHT22;25670;44.782;10.356;2024-01-15T00:44:39;1.20;99.90
39983;DHT22;25670;44.782;10.356;2024-01-15T00:47:05;1.70;99.90
39983;DHT22;25670;44.782;10.356;2024-01-15T00:49:31;1.50;99.90
39983;DHT22;25670;44.782;10.356;2024-01-15T00:54:24;1.80;99.90
39983;DHT22;25670;44.782;10.356;2024-01-15T00:56:50;1.70;99.90
39983;DHT22;25670;44.782;10.356;2024-01-15T00:59:16;1.70;99.90
39983;DHT22;25670;44.782;10.356;2024-01-15T01:01:43;2.10;99.90
39983;DHT22;25670;44.782;10.356;2024-01-15T01:04:12;1.80;99.90
39983;DHT22;25670;44.782;10.356;2024-01-15T01:06:39;1.60;99.90
39983;DHT22;25670;44.782;10.356;2024-01-15T01:09:06;1.90;99.90
39983;DHT22;25670;44.782;10.356;2024-01-15T01:11:32;1.80;99.90
39983;DHT22;25670;44.782;10.356;2024-01-15T01:13:58;1.90;99.90
39983;DHT22;25670;44.782;10.356;2024-01-15T01:18:51;1.90;99.90
39983;DHT22;25670;44.782;10.356;2024-01-15T01:21:17;2.00;99.90
39983;DHT22;25670;44.782;10.356;2024-01-15T01:23:43;1.90;99.90
39983;DHT22;25670;44.782;10.356;2024-01-15T01:26:09;2.00;99.90
39983;DHT22;25670;44.782;10.356;2024-01-15T01:28:35;2.10;99.90
39983;DHT22;25670;44.782;10.356;2024-01-15T01:31:02;2.50;99.90
39983;DHT22;25670;44.782;10.356;2024-01-15T01:33:28;2.00;99.90
39983;DHT22;25670;44.782;10.356;2024-01-15T01:35:54;1.90;99.90
39983;DHT22;25670;44.782;10.356;2024-01-15T01:38:20;1.90;99.90
39983;DHT22;25670;44.782;10.356;2024-01-15T01:40:47;1.90;99.90
39983;DHT22;25670;44.782;10.356;2024-01-15T01:43:13;1.90;99.90
39983;DHT22;25670;44.782;10.356;2024-01-15T01:45:39;2.00;99.90
39983;DHT22;25670;44.782;10.356;2024-01-15T01:48:05;2.00;99.90
39983;DHT22;25670;44.782;10.356;2024-01-15T01:50:32;2.10;99.90
39983;DHT22;25670;44.782;10.356;2024-01-15T01:52:59;2.30;99.90
39983;DHT22;25670;44.782;10.356;2024-01-15T01:55:27;2.00;99.90
39983;DHT22;25670;44.782;10.356;2024-01-15T01:57:55;1.90;99.90
39983;DHT22;25670;44.782;10.356;2024-01-15T02:00:22;2.10;99.90
39983;DHT22;25670;44.782;10.356;2024-01-15T02:02:48;2.20;99.90
39983;DHT22;25670;44.782;10.356;2024-01-15T02:05:18;2.00;99.90
39983;DHT22;25670;44.782;10.356;2024-01-15T02:07:46;2.00;99.90
39983;DHT22;25670;44.782;10.356;2024-01-15T02:10:12;2.00;99.90
39983;DHT22;25670;44.782;10.356;2024-01-15T02:12:39;2.10;99.90
39983;DHT22;25670;44.782;10.356;2024-01-15T02:15:05;1.80;99.90
39983;DHT22;25670;44.782;10.356;2024-01-15T02:17:32;2.00;99.90
39983;DHT22;25670;44.782;10.356;2024-01-15T02:19:58;1.90;99.90
39983;DHT22;25670;44.782;10.356;2024-01-15T02:22:24;2.00;99.90
39983;DHT22;25670;44.782;10.356;2024-01-15T02:24:50;2.00;99.90
39983;DHT22;25670;44.782;10.356;2024-01-15T02:27:17;2.70;99.90
39983;DHT22;25670;44.782;10.356;2024-01-15T02:29:43;2.20;99.90
39983;DHT22;25670;44.782;10.356;2024-01-15T02:32:09;2.20;99.90
39983;DHT22;25670;44.782;10.356;2024-01-15T02:34:35;2.10;99.90
39983;DHT22;25670;44.782;10.356;2024-01-15T02:41:55;2.40;99.90
39983;DHT22;25670;44.782;10.356;2024-01-15T02:44:23;2.20;99.90
39983;DHT22;25670;44.782;10.356;2024-01-15T02:46:49;1.70;99.90
39983;DHT22;25670;44.782;10.356;2024-01-15T02:49:15;2.10;99.90
39983;DHT22;25670;44.782;10.356;2024-01-15T02:54:08;2.20;99.90
39983;DHT22;25670;44.782;10.356;2024-01-15T02:56:34;2.30;99.90
39983;DHT22;25670;44.782;10.356;2024-01-15T02:59:00;2.40;99.90
39983;DHT22;25670;44.782;10.356;2024-01-15T03:01:27;2.30;99.90
39983;DHT22;25670;44.782;10.356;2024-01-15T03:03:53;3.10;99.90
39983;DHT22;25670;44.782;10.356;2024-01-15T03:06:21;2.40;99.90
39983;DHT22;25670;44.782;10.356;2024-01-15T03:08:47;2.30;99.90
39983;DHT22;25670;44.782;10.356;2024-01-15T03:16:06;2.10;99.90
39983;DHT22;25670;44.782;10.356;2024-01-15T03:18:32;2.10;99.90
39983;DHT22;25670;44.782;10.356;2024-01-15T03:20:58;2.10;99.90
39983;DHT22;25670;44.782;10.356;2024-01-15T03:23:27;2.20;99.90
39983;DHT22;25670;44.782;10.356;2024-01-15T03:25:53;2.00;99.90
39983;DHT22;25670;44.782;10.356;2024-01-15T03:28:19;2.10;99.90
39983;DHT22;25670;44.782;10.356;2024-01-15T03:30:45;2.00;99.90
39983;DHT22;25670;44.782;10.356;2024-01-15T03:33:11;2.10;99.90
39983;DHT22;25670;44.782;10.356;2024-01-15T03:38:04;1.30;99.90
39983;DHT22;25670;44.782;10.356;2024-01-15T03:45:23;2.00;99.90
39983;DHT22;25670;44.782;10.356;2024-01-15T03:50:16;2.00;99.90
39983;DHT22;25670;44.782;10.356;2024-01-15T03:52:42;2.20;99.90
39983;DHT22;25670;44.782;10.356;2024-01-15T03:55:08;2.20;99.90
39983;DHT22;25670;44.782;10.356;2024-01-15T03:57:34;2.10;99.90
39983;DHT22;25670;44.782;10.356;2024-01-15T04:02:27;2.20;99.90
39983;DHT22;25670;44.782;10.356;2024-01-15T04:04:53;2.10;99.90
39983;DHT22;25670;44.782;10.356;2024-01-15T04:07:19;2.20;99.90
39983;DHT22;25670;44.782;10.356;2024-01-15T04:12:12;2.30;99.90
39983;DHT22;25670;44.782;10.356;2024-01-15T04:14:38;2.30;99.90
39983;DHT22;25670;44.782;10.356;2024-01-15T04:17:04;2.20;99.90
39983;DHT22;25670;44.782;10.356;2024-01-15T04:19:30;2.20;99.90
39983;DHT22;25670;44.782;10.356;2024-01-15T04:21:57;2.20;99.90
39983;DHT22;25670;44.782;10.356;2024-01-15T04:24:23;2.90;99.90
39983;DHT22;25670;44.782;10.356;2024-01-15T04:26:49;2.00;99.90
39983;DHT22;25670;44.782;10.356;2024-01-15T04:31:42;2.00;99.90
39983;DHT22;25670;44.782;10.356;2024-01-15T04:34:08;2.10;99.90
39983;DHT22;25670;44.782;10.356;2024-01-15T04:36:43;2.10;99.90
39983;DHT22;25670;44.782;10.356;2024-01-15T04:44:03;1.90;99.90
39983;DHT22;25670;44.782;10.356;2024-01-15T04:46:30;1.70;99.90
39983;DHT22;25670;44.782;10.356;2024-01-15T04:51:22;1.90;99.90
39983;DHT22;25670;44.782;10.356;2024-01-15T04:53:49;2.60;99.90
39983;DHT22;25670;44.782;10.356;2024-01-15T04:58:41;1.80;99.90
39983;DHT22;25670;44.782;10.356;2024-01-15T05:01:08;1.80;99.90
39983;DHT22;25670;44.782;10.356;2024-01-15T05:03:34;1.60;99.90
39983;DHT22;25670;44.782;10.356;2024-01-15T05:06:00;1.80;99.90
39983;DHT22;25670;44.782;10.356;2024-01-15T05:08:27;1.40;99.90
39983;DHT22;25670;44.782;10.356;2024-01-15T05:10:53;1.50;99.90
39983;DHT22;25670;44.782;10.356;2024-01-15T05:13:19;1.70;99.90
39983;DHT22;25670;44.782;10.356;2024-01-15T05:15:45;1.70;99.90
39983;DHT22;25670;44.782;10.356;2024-01-15T05:18:11;1.80;99.90
39983;DHT22;25670;44.782;10.356;2024-01-15T05:20:37;1.70;99.90
39983;DHT22;25670;44.782;10.356;2024-01-15T05:23:03;1.80;99.90
39983;DHT22;25670;44.782;10.356;2024-01-15T05:25:30;1.60;99.90
39983;DHT22;25670;44.782;10.356;2024-01-15T05:27:56;1.90;99.90
39983;DHT22;25670;44.782;10.356;2024-01-15T05:30:22;1.80;99.90
39983;DHT22;25670;44.782;10.356;2024-01-15T05:35:15;2.20;99.90
39983;DHT22;25670;44.782;10.356;2024-01-15T05:37:44;1.30;99.90
39983;DHT22;25670;44.782;10.356;2024-01-15T05:40:12;1.30;99.90
39983;DHT22;25670;44.782;10.356;2024-01-15T05:42:41;1.60;99.90
39983;DHT22;25670;44.782;10.356;2024-01-15T05:45:08;1.50;99.90
39983;DHT22;25670;44.782;10.356;2024-01-15T05:47:34;1.20;99.90
39983;DHT22;25670;44.782;10.356;2024-01-15T05:50:01;1.20;99.90
39983;DHT22;25670;44.782;10.356;2024-01-15T05:52:27;1.40;99.90
39983;DHT22;25670;44.782;10.356;2024-01-15T05:54:53;1.50;99.90
39983;DHT22;25670;44.782;10.356;2024-01-15T05:57:20;1.40;99.90
39983;DHT22;25670;44.782;10.356;2024-01-15T05:59:46;1.40;99.90
39983;DHT22;25670;44.782;10.356;2024-01-15T06:02:12;1.50;99.90
39983;DHT22;25670;44.782;10.356;2024-01-15T06:04:38;1.50;99.90
39983;DHT22;25670;44.782;10.356;2024-01-15T06:07:04;1.50;99.90
39983;DHT22;25670;44.782;10.356;2024-01-15T06:09:31;1.60;99.90
39983;DHT22;25670;44.782;10.356;2024-01-15T06:11:57;1.60;99.90
39983;DHT22;25670;44.782;10.356;2024-01-15T06:16:50;1.50;99.90
39983;DHT22;25670;44.782;10.356;2024-01-15T06:19:16;1.70;99.90
39983;DHT22;25670;44.782;10.356;2024-01-15T06:21:42;1.60;99.90
39983;DHT22;25670;44.782;10.356;2024-01-15T06:24:08;1.50;99.90
39983;DHT22;25670;44.782;10.356;2024-01-15T06:26:36;1.90;99.90
39983;DHT22;25670;44.782;10.356;2024-01-15T06:29:02;1.70;99.90
39983;DHT22;25670;44.782;10.356;2024-01-15T06:31:29;0.80;99.90
39983;DHT22;25670;44.782;10.356;2024-01-15T06:33:55;1.70;99.90
39983;DHT22;25670;44.782;10.356;2024-01-15T06:36:21;1.60;99.90
39983;DHT22;25670;44.782;10.356;2024-01-15T06:38:47;1.20;99.90
39983;DHT22;25670;44.782;10.356;2024-01-15T06:43:40;1.70;99.90
39983;DHT22;25670;44.782;10.356;2024-01-15T06:46:06;1.50;99.90
39983;DHT22;25670;44.782;10.356;2024-01-15T06:48:32;1.60;99.90
39983;DHT22;25670;44.782;10.356;2024-01-15T06:53:25;1.60;99.90
39983;DHT22;25670;44.782;10.356;2024-01-15T06:55:51;1.70;99.90
39983;DHT22;25670;44.782;10.356;2024-01-15T06:58:17;1.60;99.90
39983;DHT22;25670;44.782;10.356;2024-01-15T07:00:44;1.80;99.90
39983;DHT22;25670;44.782;10.356;2024-01-15T07:05:36;1.70;99.90
39983;DHT22;25670;44.782;10.356;2024-01-15T07:08:04;1.80;99.90
39983;DHT22;25670;44.782;10.356;2024-01-15T07:10:30;2.00;99.90
39983;DHT22;25670;44.782;10.356;2024-01-15T07:12:56;1.90;99.90
39983;DHT22;25670;44.782;10.356;2024-01-15T07:15:23;1.90;99.90
39983;DHT22;25670;44.782;10.356;2024-01-15T07:20:15;1.70;99.90
39983;DHT22;25670;44.782;10.356;2024-01-15T07:22:41;1.90;99.90
39983;DHT22;25670;44.782;10.356;2024-01-15T07:25:08;1.50;99.90
39983;DHT22;25670;44.782;10.356;2024-01-15T07:27:34;1.90;99.90
39983;DHT22;25670;44.782;10.356;2024-01-15T07:30:00;1.80;99.90
39983;DHT22;25670;44.782;10.356;2024-01-15T07:32:26;2.10;99.90
39983;DHT22;25670;44.782;10.356;2024-01-15T07:37:19;2.10;99.90
39983;DHT22;25670;44.782;10.356;2024-01-15T07:39:45;2.30;99.90
39983;DHT22;25670;44.782;10.356;2024-01-15T07:42:11;2.40;99.90
39983;DHT22;25670;44.782;10.356;2024-01-15T07:47:04;2.30;99.90
39983;DHT22;25670;44.782;10.356;2024-01-15T07:49:31;2.50;99.90
39983;DHT22;25670;44.782;10.356;2024-01-15T07:51:57;2.50;99.90
39983;DHT22;25670;44.782;10.356;2024-01-15T07:54:23;2.40;99.90
39983;DHT22;25670;44.782;10.356;2024-01-15T07:56:56;2.60;99.90
39983;DHT22;25670;44.782;10.356;2024-01-15T07:59:24;2.60;99.90
39983;DHT22;25670;44.782;10.356;2024-01-15T08:01:51;2.80;99.90
39983;DHT22;25670;44.782;10.356;2024-01-15T08:04:17;2.70;99.90
39983;DHT22;25670;44.782;10.356;2024-01-15T08:06:44;2.90;99.90
39983;DHT22;25670;44.782;10.356;2024-01-15T08:11:42;2.90;99.90
39983;DHT22;25670;44.782;10.356;2024-01-15T08:16:35;3.00;99.90
39983;DHT22;25670;44.782;10.356;2024-01-15T08:19:02;3.00;99.90
39983;DHT22;25670;44.782;10.356;2024-01-15T08:21:29;3.00;99.90
39983;DHT22;25670;44.782;10.356;2024-01-15T08:23:57;3.10;99.90
39983;DHT22;25670;44.782;10.356;2024-01-15T08:26:24;3.20;99.90
39983;DHT22;25670;44.782;10.356;2024-01-15T08:28:50;3.40;99.90
39983;DHT22;25670;44.782;10.356;2024-01-15T08:31:16;3.40;99.90
39983;DHT22;25670;44.782;10.356;2024-01-15T08:33:43;3.30;99.90
39983;DHT22;25670;44.782;10.356;2024-01-15T08:36:09;3.70;99.90
39983;DHT22;25670;44.782;10.356;2024-01-15T08:38:36;3.50;99.90
39983;DHT22;25670;44.782;10.356;2024-01-15T08:41:02;3.50;99.90
39983;DHT22;25670;44.782;10.356;2024-01-15T08:43:28;3.60;99.90
39983;DHT22;25670;44.782;10.356;2024-01-15T08:45:54;3.80;99.90
39983;DHT22;25670;44.782;10.356;2024-01-15T08:48:21;4.00;99.90
39983;DHT22;25670;44.782;10.356;2024-01-15T08:50:47;4.00;99.90
39983;DHT22;25670;44.782;10.356;2024-01-15T08:53:13;3.70;99.90
39983;DHT22;25670;44.782;10.356;2024-01-15T08:55:40;3.60;99.90
39983;DHT22;25670;44.782;10.356;2024-01-15T08:58:08;3.50;99.90
39983;DHT22;25670;44.782;10.356;2024-01-15T09:00:34;3.70;99.90
39983;DHT22;25670;44.782;10.356;2024-01-15T09:03:01;3.90;99.90
39983;DHT22;25670;44.782;10.356;2024-01-15T09:05:28;3.90;99.90
39983;DHT22;25670;44.782;10.356;2024-01-15T09:07:54;4.10;99.90
39983;DHT22;25670;44.782;10.356;2024-01-15T09:10:21;4.10;99.90
39983;DHT22;25670;44.782;10.356;2024-01-15T09:12:47;4.10;99.90
39983;DHT22;25670;44.782;10.356;2024-01-15T09:15:15;4.30;99.90
39983;DHT22;25670;44.782;10.356;2024-01-15T09:20:09;4.30;99.90
39983;DHT22;25670;44.782;10.356;2024-01-15T09:22:38;4.30;99.90
39983;DHT22;25670;44.782;10.356;2024-01-15T09:25:05;4.10;99.90
39983;DHT22;25670;44.782;10.356;2024-01-15T09:27:31;4.60;99.90
39983;DHT22;25670;44.782;10.356;2024-01-15T09:29:58;4.60;99.90
39983;DHT22;25670;44.782;10.356;2024-01-15T09:32:24;4.30;99.90
39983;DHT22;25670;44.782;10.356;2024-01-15T09:34:50;5.20;99.90
39983;DHT22;25670;44.782;10.356;2024-01-15T09:37:17;4.60;99.90
39983;DHT22;25670;44.782;10.356;2024-01-15T09:39:43;4.80;99.90
39983;DHT22;25670;44.782;10.356;2024-01-15T09:42:10;4.60;99.90
39983;DHT22;25670;44.782;10.356;2024-01-15T09:44:36;4.30;99.90
39983;DHT22;25670;44.782;10.356;2024-01-15T09:47:04;4.80;99.90
39983;DHT22;25670;44.782;10.356;2024-01-15T09:49:31;5.00;99.90
39983;DHT22;25670;44.782;10.356;2024-01-15T09:51:58;5.00;99.90
39983;DHT22;25670;44.782;10.356;2024-01-15T09:54:24;5.10;96.50
39983;DHT22;25670;44.782;10.356;2024-01-15T09:56:55;5.20;95.10
39983;DHT22;25670;44.782;10.356;2024-01-15T09:59:22;5.20;77.20
39983;DHT22;25670;44.782;10.356;2024-01-15T10:01:50;5.20;92.40
39983;DHT22;25670;44.782;10.356;2024-01-15T10:04:17;5.30;91.50
39983;DHT22;25670;44.782;10.356;2024-01-15T10:06:46;5.00;87.30
39983;DHT22;25670;44.782;10.356;2024-01-15T10:09:14;5.30;91.80
39983;DHT22;25670;44.782;10.356;2024-01-15T10:11:43;5.00;88.00
39983;DHT22;25670;44.782;10.356;2024-01-15T10:14:11;5.00;76.50
39983;DHT22;25670;44.782;10.356;2024-01-15T10:16:41;4.80;93.50
39983;DHT22;25670;44.782;10.356;2024-01-15T10:19:08;5.10;99.90
39983;DHT22;25670;44.782;10.356;2024-01-15T10:21:35;4.80;99.90
39983;DHT22;25670;44.782;10.356;2024-01-15T10:24:03;5.00;99.90
39983;DHT22;25670;44.782;10.356;2024-01-15T10:26:30;5.10;93.60
39983;DHT22;25670;44.782;10.356;2024-01-15T10:28:58;5.10;99.90
39983;DHT22;25670;44.782;10.356;2024-01-15T10:31:27;5.30;95.60
39983;DHT22;25670;44.782;10.356;2024-01-15T10:33:54;5.20;92.60
39983;DHT22;25670;44.782;10.356;2024-01-15T10:36:23;5.30;85.00
39983;DHT22;25670;44.782;10.356;2024-01-15T10:38:49;5.40;93.50
39983;DHT22;25670;44.782;10.356;2024-01-15T10:41:16;4.80;83.70
39983;DHT22;25670;44.782;10.356;2024-01-15T10:43:42;5.50;74.80
39983;DHT22;25670;44.782;10.356;2024-01-15T10:46:08;5.50;90.60
39983;DHT22;25670;44.782;10.356;2024-01-15T10:48:35;5.80;73.70
39983;DHT22;25670;44.782;10.356;2024-01-15T10:51:02;5.80;55.50
39983;DHT22;25670;44.782;10.356;2024-01-15T10:53:39;5.70;58.80
39983;DHT22;25670;44.782;10.356;2024-01-15T10:56:07;5.90;47.80
39983;DHT22;25670;44.782;10.356;2024-01-15T10:58:36;6.00;45.00
39983;DHT22;25670;44.782;10.356;2024-01-15T11:01:04;6.20;34.90
39983;DHT22;25670;44.782;10.356;2024-01-15T11:03:31;6.20;40.40
39983;DHT22;25670;44.782;10.356;2024-01-15T11:05:57;6.00;33.80
39983;DHT22;25670;44.782;10.356;2024-01-15T11:08:25;6.30;23.70
39983;DHT22;25670;44.782;10.356;2024-01-15T11:10:52;6.20;20.10
39983;DHT22;25670;44.782;10.356;2024-01-15T11:13:22;6.30;14.60
39983;DHT22;25670;44.782;10.356;2024-01-15T11:16:10;6.30;10.70
39983;DHT22;25670;44.782;10.356;2024-01-15T11:18:41;6.40;11.40
39983;DHT22;25670;44.782;10.356;2024-01-15T11:23:46;6.50;6.50
39983;DHT22;25670;44.782;10.356;2024-01-15T11:26:43;6.40;1.00
39983;DHT22;25670;44.782;10.356;2024-01-15T11:34:21;6.60;8.10
39983;DHT22;25670;44.782;10.356;2024-01-15T11:37:07;6.80;11.50
39983;DHT22;25670;44.782;10.356;2024-01-15T11:42:03;5.90;1.00
39983;DHT22;25670;44.782;10.356;2024-01-15T11:44:30;7.00;1.00
39983;DHT22;25670;44.782;10.356;2024-01-15T11:47:05;7.00;1.00
39983;DHT22;25670;44.782;10.356;2024-01-15T11:49:58;7.10;1.00
39983;DHT22;25670;44.782;10.356;2024-01-15T11:52:35;7.20;1.00
39983;DHT22;25670;44.782;10.356;2024-01-15T11:57:41;7.30;1.00
39983;DHT22;25670;44.782;10.356;2024-01-15T12:00:10;7.30;1.00
39983;DHT22;25670;44.782;10.356;2024-01-15T12:02:41;7.40;1.00
39983;DHT22;25670;44.782;10.356;2024-01-15T12:05:09;7.40;1.00
39983;DHT22;25670;44.782;10.356;2024-01-15T12:07:35;7.50;1.00
39983;DHT22;25670;44.782;10.356;2024-01-15T12:10:02;7.60;1.00
39983;DHT22;25670;44.782;10.356;2024-01-15T12:12:37;7.70;1.00
39983;DHT22;25670;44.782;10.356;2024-01-15T12:15:05;7.80;1.00
39983;DHT22;25670;44.782;10.356;2024-01-15T12:17:32;7.90;1.00
39983;DHT22;25670;44.782;10.356;2024-01-15T12:19:58;8.00;1.00
39983;DHT22;25670;44.782;10.356;2024-01-15T12:22:24;8.10;1.00
39983;DHT22;25670;44.782;10.356;2024-01-15T12:24:50;8.10;99.90
39983;DHT22;25670;44.782;10.356;2024-01-15T12:27:17;8.50;99.90
39983;DHT22;25670;44.782;10.356;2024-01-15T12:29:43;8.40;99.90
39983;DHT22;25670;44.782;10.356;2024-01-15T12:32:11;8.40;99.90
39983;DHT22;25670;44.782;10.356;2024-01-15T12:34:37;8.50;99.90
39983;DHT22;25670;44.782;10.356;2024-01-15T12:37:04;8.60;99.90
39983;DHT22;25670;44.782;10.356;2024-01-15T12:39:30;8.70;99.90
39983;DHT22;25670;44.782;10.356;2024-01-15T12:41:58;8.70;99.90
39983;DHT22;25670;44.782;10.356;2024-01-15T12:44:25;9.00;99.90
39983;DHT22;25670;44.782;10.356;2024-01-15T12:46:51;9.50;99.90
39983;DHT22;25670;44.782;10.356;2024-01-15T12:49:17;10.20;99.90
39983;DHT22;25670;44.782;10.356;2024-01-15T12:51:43;10.80;1.00
39983;DHT22;25670;44.782;10.356;2024-01-15T12:54:17;11.40;99.90
39983;DHT22;25670;44.782;10.356;2024-01-15T12:56:43;12.00;99.90
39983;DHT22;25670;44.782;10.356;2024-01-15T12:59:10;12.50;91.20
39983;DHT22;25670;44.782;10.356;2024-01-15T13:01:36;12.90;1.00
39983;DHT22;25670;44.782;10.356;2024-01-15T13:04:03;13.20;99.90
39983;DHT22;25670;44.782;10.356;2024-01-15T13:06:29;13.50;99.90
39983;DHT22;25670;44.782;10.356;2024-01-15T13:08:55;13.90;99.90
39983;DHT22;25670;44.782;10.356;2024-01-15T13:11:21;14.40;99.90
39983;DHT22;25670;44.782;10.356;2024-01-15T13:13:48;14.70;99.90
39983;DHT22;25670;44.782;10.356;2024-01-15T13:16:14;14.70;47.40
39983;DHT22;25670;44.782;10.356;2024-01-15T13:18:40;14.60;73.20
39983;DHT22;25670;44.782;10.356;2024-01-15T13:21:07;14.30;99.90
39983;DHT22;25670;44.782;10.356;2024-01-15T13:23:33;14.60;99.90
39983;DHT22;25670;44.782;10.356;2024-01-15T13:25:59;14.80;99.90
39983;DHT22;25670;44.782;10.356;2024-01-15T13:28:25;15.00;1.00
39983;DHT22;25670;44.782;10.356;2024-01-15T13:30:51;15.10;1.00
39983;DHT22;25670;44.782;10.356;2024-01-15T13:33:18;15.10;99.90
39983;DHT22;25670;44.782;10.356;2024-01-15T13:35:44;15.30;1.00
39983;DHT22;25670;44.782;10.356;2024-01-15T13:38:11;15.90;99.90
39983;DHT22;25670;44.782;10.356;2024-01-15T13:40:37;15.90;99.90
39983;DHT22;25670;44.782;10.356;2024-01-15T13:43:03;16.10;1.00
39983;DHT22;25670;44.782;10.356;2024-01-15T13:45:34;16.00;65.40
39983;DHT22;25670;44.782;10.356;2024-01-15T13:48:01;16.20;26.90
39983;DHT22;25670;44.782;10.356;2024-01-15T13:50:31;16.10;1.00
39983;DHT22;25670;44.782;10.356;2024-01-15T13:52:58;16.80;1.00
39983;DHT22;25670;44.782;10.356;2024-01-15T13:55:24;17.20;99.90
39983;DHT22;25670;44.782;10.356;2024-01-15T13:57:50;17.50;99.90
39983;DHT22;25670;44.782;10.356;2024-01-15T14:00:16;17.40;99.90
39983;DHT22;25670;44.782;10.356;2024-01-15T14:02:46;17.10;99.90
39983;DHT22;25670;44.782;10.356;2024-01-15T14:05:12;17.00;94.70
39983;DHT22;25670;44.782;10.356;2024-01-15T14:07:39;16.80;99.90
39983;DHT22;25670;44.782;10.356;2024-01-15T14:10:06;16.50;99.90
39983;DHT22;25670;44.782;10.356;2024-01-15T14:12:34;16.40;99.90
39983;DHT22;25670;44.782;10.356;2024-01-15T14:15:01;16.20;99.90
39983;DHT22;25670;44.782;10.356;2024-01-15T14:17:28;16.30;99.90
39983;DHT22;25670;44.782;10.356;2024-01-15T14:19:54;16.00;99.90
39983;DHT22;25670;44.782;10.356;2024-01-15T14:22:20;16.20;3.70
39983;DHT22;25670;44.782;10.356;2024-01-15T14:24:46;16.20;67.00
39983;DHT22;25670;44.782;10.356;2024-01-15T14:27:13;16.40;99.90
39983;DHT22;25670;44.782;10.356;2024-01-15T14:29:39;16.20;99.90
39983;DHT22;25670;44.782;10.356;2024-01-15T14:32:05;16.30;1.00
39983;DHT22;25670;44.782;10.356;2024-01-15T14:34:31;16.00;18.40
39983;DHT22;25670;44.782;10.356;2024-01-15T14:36:57;15.80;99.90
39983;DHT22;25670;44.782;10.356;2024-01-15T14:39:24;16.50;99.90
39983;DHT22;25670;44.782;10.356;2024-01-15T14:41:51;16.40;99.90
39983;DHT22;25670;44.782;10.356;2024-01-15T14:44:18;16.70;99.90
39983;DHT22;25670;44.782;10.356;2024-01-15T14:46:44;16.70;99.90
39983;DHT22;25670;44.782;10.356;2024-01-15T14:49:11;16.90;99.90
39983;DHT22;25670;44.782;10.356;2024-01-15T14:51:38;16.70;99.90
39983;DHT22;25670;44.782;10.356;2024-01-15T14:54:04;16.30;99.90
39983;DHT22;25670;44.782;10.356;2024-01-15T14:56:30;16.80;99.90
39983;DHT22;25670;44.782;10.356;2024-01-15T14:58:57;17.00;99.90
39983;DHT22;25670;44.782;10.356;2024-01-15T15:01:24;16.70;99.90
39983;DHT22;25670;44.782;10.356;2024-01-15T15:03:51;16.60;99.90
39983;DHT22;25670;44.782;10.356;2024-01-15T15:06:17;16.20;1.00
39983;DHT22;25670;44.782;10.356;2024-01-15T15:08:43;16.00;47.30
39983;DHT22;25670;44.782;10.356;2024-01-15T15:11:09;16.00;99.90
39983;DHT22;25670;44.782;10.356;2024-01-15T15:13:36;15.60;99.90
39983;DHT22;25670;44.782;10.356;2024-01-15T15:16:03;14.80;45.90
39983;DHT22;25670;44.782;10.356;2024-01-15T15:18:29;14.10;99.90
39983;DHT22;25670;44.782;10.356;2024-01-15T15:20:56;13.50;1.00
39983;DHT22;25670;44.782;10.356;2024-01-15T15:23:22;13.10;99.90
39983;DHT22;25670;44.782;10.356;2024-01-15T15:25:48;13.10;99.90
39983;DHT22;25670;44.782;10.356;2024-01-15T15:28:14;12.90;99.90
39983;DHT22;25670;44.782;10.356;2024-01-15T15:30:42;12.40;99.90
39983;DHT22;25670;44.782;10.356;2024-01-15T15:33:08;12.20;32.80
39983;DHT22;25670;44.782;10.356;2024-01-15T15:35:34;12.00;99.90
39983;DHT22;25670;44.782;10.356;2024-01-15T15:38:00;11.40;99.90
39983;DHT22;25670;44.782;10.356;2024-01-15T15:40:27;11.50;62.30
39983;DHT22;25670;44.782;10.356;2024-01-15T15:42:53;11.10;99.90
39983;DHT22;25670;44.782;10.356;2024-01-15T15:45:19;10.80;99.90
39983;DHT22;25670;44.782;10.356;2024-01-15T15:47:45;10.30;99.90
39983;DHT22;25670;44.782;10.356;2024-01-15T15:50:11;9.90;99.90
39983;DHT22;25670;44.782;10.356;2024-01-15T15:52:37;9.50;1.00
39983;DHT22;25670;44.782;10.356;2024-01-15T15:55:04;9.10;99.90
39983;DHT22;25670;44.782;10.356;2024-01-15T15:57:31;8.70;99.90
39983;DHT22;25670;44.782;10.356;2024-01-15T15:59:57;8.30;99.90
39983;DHT22;25670;44.782;10.356;2024-01-15T16:02:24;8.00;99.90
39983;DHT22;25670;44.782;10.356;2024-01-15T16:04:50;7.60;1.00
39983;DHT22;25670;44.782;10.356;2024-01-15T16:07:16;7.40;1.00
39983;DHT22;25670;44.782;10.356;2024-01-15T16:09:42;7.50;1.00
39983;DHT22;25670;44.782;10.356;2024-01-15T16:14:36;6.70;20.10
39983;DHT22;25670;44.782;10.356;2024-01-15T16:17:02;7.10;35.60
39983;DHT22;25670;44.782;10.356;2024-01-15T16:19:28;6.30;47.80
39983;DHT22;25670;44.782;10.356;2024-01-15T16:21:54;6.20;99.90
39983;DHT22;25670;44.782;10.356;2024-01-15T16:26:49;6.10;99.90
39983;DHT22;25670;44.782;10.356;2024-01-15T16:29:15;6.00;98.10
39983;DHT22;25670;44.782;10.356;2024-01-15T16:31:41;5.60;99.90
39983;DHT22;25670;44.782;10.356;2024-01-15T16:34:07;5.40;99.90
39983;DHT22;25670;44.782;10.356;2024-01-15T16:36:34;5.60;99.90
39983;DHT22;25670;44.782;10.356;2024-01-15T16:39:00;5.20;99.90
39983;DHT22;25670;44.782;10.356;2024-01-15T16:41:26;5.10;99.90
39983;DHT22;25670;44.782;10.356;2024-01-15T16:43:53;5.30;99.90
39983;DHT22;25670;44.782;10.356;2024-01-15T16:48:46;4.80;99.90
39983;DHT22;25670;44.782;10.356;2024-01-15T16:51:12;4.80;99.90
39983;DHT22;25670;44.782;10.356;2024-01-15T16:53:39;4.70;99.90
39983;DHT22;25670;44.782;10.356;2024-01-15T16:56:05;4.60;99.90
39983;DHT22;25670;44.782;10.356;2024-01-15T16:58:31;4.50;99.90